createdAt,value
2019-05-20T00:00:44.848Z,100889.48
2019-05-20T00:03:15.954Z,100886.58
2019-05-20T00:05:47.302Z,100891.53
2019-05-20T00:08:18.508Z,100888.14
2019-05-20T00:10:51.293Z,100888.14
2019-05-20T00:13:22.351Z,100886.56
2019-05-20T00:15:53.454Z,100885.59
2019-05-20T00:18:26.025Z,100889.71
2019-05-20T00:20:57.170Z,100890.28
2019-05-20T00:23:28.256Z,100894.15
2019-05-20T00:25:59.381Z,100898.43
2019-05-20T00:28:30.468Z,100895.64
2019-05-20T00:31:01.560Z,100892.48
2019-05-20T00:33:32.607Z,100889.92
2019-05-20T00:36:03.717Z,100900.39
2019-05-20T00:38:34.821Z,100900.27
2019-05-20T00:41:05.904Z,100889.03
2019-05-20T00:43:36.966Z,100891.21
2019-05-20T00:46:08.015Z,100894.81
2019-05-20T00:48:39.111Z,100897.30
2019-05-20T00:51:11.025Z,100896.88
2019-05-20T00:53:42.083Z,100886.92
2019-05-20T00:56:14.747Z,100888.51
2019-05-20T00:58:45.897Z,100892.53
2019-05-20T01:01:17.014Z,100892.41
2019-05-20T01:03:48.141Z,100892.77
2019-05-20T01:06:19.282Z,100886.50
2019-05-20T01:08:50.336Z,100893.02
2019-05-20T01:11:21.455Z,100895.50
2019-05-20T01:13:52.549Z,100889.62
2019-05-20T01:16:23.767Z,100888.64
2019-05-20T01:18:54.891Z,100883.55
2019-05-20T01:21:26.065Z,100886.05
2019-05-20T01:23:57.162Z,100878.91
2019-05-20T01:26:28.335Z,100885.94
2019-05-20T01:28:59.421Z,100886.53
2019-05-20T01:31:30.504Z,100892.44
2019-05-20T01:34:01.583Z,100895.31
2019-05-20T01:36:33.648Z,100898.77
2019-05-20T01:39:06.344Z,100897.33
2019-05-20T01:41:38.969Z,100892.00
2019-05-20T01:44:11.617Z,100897.83
2019-05-20T01:46:42.720Z,100884.90
2019-05-20T01:49:13.789Z,100892.88
2019-05-20T01:51:44.891Z,100887.63
2019-05-20T01:54:16.272Z,100880.40
2019-05-20T01:56:47.376Z,100879.84
2019-05-20T01:59:18.535Z,100872.05
2019-05-20T02:01:51.240Z,100876.34
2019-05-20T02:04:22.289Z,100871.55
2019-05-20T02:06:54.221Z,100868.69
2019-05-20T02:09:25.310Z,100862.38
2019-05-20T02:11:56.440Z,100864.53
2019-05-20T02:14:29.076Z,100860.34
2019-05-20T02:17:02.663Z,100865.57
2019-05-20T02:19:32.946Z,100869.69
2019-05-20T02:22:05.510Z,100870.75
2019-05-20T02:24:36.694Z,100868.44
2019-05-20T02:27:07.803Z,100867.62
2019-05-20T02:29:41.121Z,100874.48
2019-05-20T02:32:12.246Z,100880.31
2019-05-20T02:34:43.325Z,100870.33
2019-05-20T02:37:15.257Z,100867.03
2019-05-20T02:39:46.340Z,100866.85
2019-05-20T02:42:17.421Z,100856.35
2019-05-20T02:44:49.144Z,100867.92
2019-05-20T02:47:20.218Z,100874.00
2019-05-20T02:49:51.283Z,100873.23
2019-05-20T02:52:22.389Z,100865.27
2019-05-20T02:54:53.528Z,100861.06
2019-05-20T02:57:24.590Z,100860.13
2019-05-20T02:59:55.685Z,100858.45
2019-05-20T03:02:26.969Z,100854.26
2019-05-20T03:04:59.627Z,100859.23
2019-05-20T03:07:30.748Z,100857.44
2019-05-20T03:10:01.789Z,100866.22
2019-05-20T03:12:34.385Z,100862.58
2019-05-20T03:15:09.829Z,100870.20
2019-05-20T03:17:41.001Z,100862.70
2019-05-20T03:20:13.565Z,100868.71
2019-05-20T03:22:46.282Z,100869.61
2019-05-20T03:25:17.417Z,100884.80
2019-05-20T03:27:50.012Z,100873.46
2019-05-20T03:30:21.281Z,100875.41
2019-05-20T03:32:53.930Z,100873.34
2019-05-20T03:35:24.978Z,100875.05
2019-05-20T03:37:57.838Z,100876.80
2019-05-20T03:40:28.902Z,100872.73
2019-05-20T03:43:01.437Z,100875.64
2019-05-20T03:45:32.587Z,100868.34
2019-05-20T03:48:06.885Z,100867.95
2019-05-20T03:50:38.207Z,100870.09
2019-05-20T03:53:09.367Z,100868.88
2019-05-20T03:55:41.833Z,100864.58
2019-05-20T03:58:15.779Z,100863.04
2019-05-20T04:00:47.965Z,100871.09
2019-05-20T04:03:19.128Z,100867.76
2019-05-20T04:05:50.209Z,100867.70
2019-05-20T04:08:25.096Z,100865.36
2019-05-20T04:10:56.149Z,100858.74
2019-05-20T04:13:27.240Z,100860.94
2019-05-20T04:15:58.317Z,100860.45
2019-05-20T04:18:29.381Z,100864.37
2019-05-20T04:21:00.464Z,100866.30
2019-05-20T04:23:32.404Z,100853.89
2019-05-20T04:26:03.507Z,100855.39
2019-05-20T04:28:34.571Z,100864.78
2019-05-20T04:31:05.663Z,100861.06
2019-05-20T04:33:36.755Z,100859.53
2019-05-20T04:36:07.832Z,100859.78
2019-05-20T04:38:41.273Z,100855.14
2019-05-20T04:41:12.318Z,100853.23
2019-05-20T04:43:43.438Z,100855.89
2019-05-20T04:46:14.483Z,100852.08
2019-05-20T04:48:45.612Z,100853.59
2019-05-20T04:51:16.690Z,100846.33
2019-05-20T04:53:48.622Z,100849.34
2019-05-20T04:56:19.719Z,100848.98
2019-05-20T04:58:50.852Z,100849.31
2019-05-20T05:01:23.504Z,100852.19
2019-05-20T05:03:54.565Z,100850.86
2019-05-20T05:06:25.615Z,100852.06
2019-05-20T05:08:57.543Z,100851.33
2019-05-20T05:11:30.035Z,100855.33
2019-05-20T05:14:01.890Z,100855.73
2019-05-20T05:16:32.958Z,100849.83
2019-05-20T05:19:04.174Z,100846.39
2019-05-20T05:21:35.285Z,100855.23
2019-05-20T05:24:07.532Z,100858.65
2019-05-20T05:26:40.055Z,100854.19
2019-05-20T05:29:11.152Z,100859.03
2019-05-20T05:31:43.671Z,100849.59
2019-05-20T05:34:14.909Z,100852.12
2019-05-20T05:36:45.994Z,100847.02
2019-05-20T05:39:18.252Z,100846.86
2019-05-20T05:41:50.895Z,100849.66
2019-05-20T05:44:22.013Z,100854.56
2019-05-20T05:46:53.105Z,100841.41
2019-05-20T05:49:24.190Z,100842.97
2019-05-20T05:52:00.833Z,100846.52
2019-05-20T05:54:34.467Z,100846.66
2019-05-20T05:57:05.536Z,100845.12
2019-05-20T05:59:36.701Z,100849.23
2019-05-20T06:02:07.825Z,100851.63
2019-05-20T06:04:38.968Z,100845.28
2019-05-20T06:07:10.068Z,100846.42
2019-05-20T06:09:41.185Z,100843.52
2019-05-20T06:12:12.271Z,100842.61
2019-05-20T06:14:43.461Z,100849.91
2019-05-20T06:17:16.047Z,100845.65
2019-05-20T06:19:47.149Z,100848.14
2019-05-20T06:22:18.221Z,100849.11
2019-05-20T06:24:49.431Z,100842.81
2019-05-20T06:27:20.522Z,100836.87
2019-05-20T06:29:53.239Z,100837.55
2019-05-20T06:32:24.292Z,100829.81
2019-05-20T06:34:55.411Z,100832.34
2019-05-20T06:37:28.650Z,100822.00
2019-05-20T06:39:59.802Z,100817.87
2019-05-20T06:42:30.896Z,100815.23
2019-05-20T06:45:02.029Z,100811.91
2019-05-20T06:47:33.092Z,100803.66
2019-05-20T06:50:06.723Z,100807.44
2019-05-20T06:52:37.811Z,100799.84
2019-05-20T06:55:10.094Z,100804.92
2019-05-20T06:57:41.206Z,100806.63
2019-05-20T07:00:12.361Z,100803.01
2019-05-20T07:02:43.434Z,100804.59
2019-05-20T07:05:14.722Z,100808.67
2019-05-20T07:07:49.031Z,100804.75
2019-05-20T07:10:20.363Z,100797.24
2019-05-20T07:12:51.438Z,100799.91
2019-05-20T07:15:23.341Z,100800.59
2019-05-20T07:17:54.420Z,100794.64
2019-05-20T07:20:27.140Z,100792.60
2019-05-20T07:22:58.280Z,100790.58
2019-05-20T07:25:30.608Z,100794.36
2019-05-20T07:28:01.758Z,100791.28
2019-05-20T07:30:32.969Z,100791.22
2019-05-20T07:33:04.044Z,100788.69
2019-05-20T07:35:35.157Z,100788.38
2019-05-20T07:38:06.244Z,100791.98
2019-05-20T07:40:38.882Z,100794.20
2019-05-20T07:43:10.013Z,100789.58
2019-05-20T07:45:42.783Z,100784.19
2019-05-20T07:48:15.421Z,100789.23
2019-05-20T07:50:47.686Z,100792.95
2019-05-20T07:53:20.190Z,100791.59
2019-05-20T07:56:00.896Z,100789.56
2019-05-20T07:58:34.317Z,100783.19
2019-05-20T08:01:05.596Z,100791.61
2019-05-20T08:03:38.745Z,100784.45
2019-05-20T08:06:09.692Z,100786.44
2019-05-20T08:08:40.826Z,100782.72
2019-05-20T08:11:15.156Z,100776.57
2019-05-20T08:13:49.010Z,100781.11
2019-05-20T08:16:19.863Z,100782.69
2019-05-20T08:18:52.521Z,100781.05
2019-05-20T08:21:23.669Z,100784.87
2019-05-20T08:23:54.766Z,100781.45
2019-05-20T08:26:25.990Z,100774.12
2019-05-20T08:28:57.116Z,100778.38
2019-05-20T08:31:28.209Z,100784.59
2019-05-20T08:33:59.606Z,100777.22
2019-05-20T08:36:30.684Z,100786.37
2019-05-20T08:39:01.771Z,100780.72
2019-05-20T08:41:35.331Z,100769.50
2019-05-20T08:44:09.209Z,100771.72
2019-05-20T08:46:43.116Z,100776.02
2019-05-20T08:49:16.769Z,100776.24
2019-05-20T08:51:47.110Z,100775.80
2019-05-20T08:54:21.283Z,100773.72
2019-05-20T08:56:52.547Z,100777.94
2019-05-20T08:59:27.170Z,100787.96
2019-05-20T09:01:58.470Z,100783.92
2019-05-20T09:04:39.078Z,100784.02
2019-05-20T09:07:11.971Z,100780.42
2019-05-20T09:09:49.330Z,100772.40
2019-05-20T09:12:25.999Z,100776.11
2019-05-20T09:14:58.724Z,100775.67
2019-05-20T09:17:31.544Z,100768.02
2019-05-20T09:20:07.692Z,100764.42
2019-05-20T09:22:39.071Z,100770.66
2019-05-20T09:25:12.201Z,100771.88
2019-05-20T09:27:49.469Z,100767.58
2019-05-20T09:30:26.773Z,100768.20
2019-05-20T09:32:57.885Z,100770.27
2019-05-20T09:35:30.550Z,100765.25
2019-05-20T09:38:19.380Z,100763.27
2019-05-20T09:40:46.486Z,100759.55
2019-05-20T09:43:19.908Z,100758.20
2019-05-20T09:46:06.261Z,100754.52
2019-05-20T09:48:28.816Z,100758.38
2019-05-20T09:50:59.952Z,100751.66
2019-05-20T09:53:38.504Z,100762.06
2019-05-20T09:56:09.681Z,100758.73
2019-05-20T09:58:42.600Z,100760.58
2019-05-20T10:01:18.896Z,100760.08
2019-05-20T10:03:59.960Z,100764.61
2019-05-20T10:06:30.590Z,100765.25
2019-05-20T10:09:01.767Z,100750.81
2019-05-20T10:11:32.969Z,100750.81
2019-05-20T10:14:13.393Z,100735.67
2019-05-20T10:16:47.190Z,100736.89
2019-05-20T10:19:24.420Z,100743.27
2019-05-20T10:21:59.800Z,100739.05
2019-05-20T10:26:10.842Z,100739.73
2019-05-20T10:27:14.598Z,100732.33
2019-05-20T10:29:50.607Z,100731.85
2019-05-20T10:32:24.925Z,100726.80
2019-05-20T10:34:58.088Z,100722.24
2019-05-20T10:37:40.564Z,100720.92
2019-05-20T10:40:09.915Z,100717.53
2019-05-20T10:42:45.125Z,100706.94
2019-05-20T10:45:22.069Z,100714.53
2019-05-20T10:47:59.982Z,100711.50
2019-05-20T10:50:31.842Z,100723.30
2019-05-20T10:54:11.101Z,100727.02
2019-05-20T10:55:45.428Z,100730.16
2019-05-20T10:58:20.064Z,100728.31
2019-05-20T11:01:02.197Z,100727.00
2019-05-20T11:03:29.348Z,100725.33
2019-05-20T11:06:11.995Z,100719.95
2019-05-20T11:08:46.526Z,100737.77
2019-05-20T11:11:20.794Z,100731.40
2019-05-20T11:13:51.914Z,100726.67
2019-05-20T11:16:41.775Z,100720.77
2019-05-20T11:19:15.759Z,100728.67
2019-05-20T11:21:57.239Z,100724.64
2019-05-20T11:24:55.995Z,100730.38
2019-05-20T11:27:28.755Z,100725.98
2019-05-20T11:30:05.926Z,100725.00
2019-05-20T11:32:49.534Z,100723.98
2019-05-20T11:35:15.640Z,100721.64
2019-05-20T11:37:52.368Z,100719.27
2019-05-20T11:40:32.050Z,100717.92
2019-05-20T11:43:11.476Z,100728.70
2019-05-20T11:45:42.119Z,100725.83
2019-05-20T11:50:51.659Z,100720.94
2019-05-20T11:53:26.205Z,100713.05
2019-05-20T11:56:14.344Z,100721.97
2019-05-20T11:58:53.464Z,100716.94
2019-05-20T12:01:20.829Z,100712.88
2019-05-20T12:04:04.877Z,100718.95
2019-05-20T12:06:33.506Z,100709.02
2019-05-20T12:20:04.807Z,100698.33
2019-05-20T12:22:54.722Z,100687.55
2019-05-20T12:25:24.373Z,100680.05
2019-05-20T12:27:59.999Z,100669.83
2019-05-20T12:31:25.816Z,100671.04
2019-05-20T12:34:46.905Z,100665.99
2019-05-20T12:36:32.018Z,100658.59
2019-05-20T12:38:45.049Z,100653.53
2019-05-20T12:41:23.659Z,100651.87
2019-05-20T12:44:11.587Z,100640.59
2019-05-20T12:46:44.363Z,100631.67
2019-05-20T12:53:01.369Z,100614.62
2019-05-20T12:55:38.812Z,100616.53
2019-05-20T12:58:12.610Z,100614.09
2019-05-20T13:06:01.124Z,100605.55
2019-05-20T13:08:33.005Z,100595.07
2019-05-20T13:11:05.572Z,100591.73
2019-05-20T13:13:36.733Z,100591.56
2019-05-20T13:16:07.769Z,100591.72
2019-05-20T13:18:53.485Z,100590.05
2019-05-20T13:21:13.489Z,100578.28
2019-05-20T13:23:48.522Z,100585.34
2019-05-20T13:26:17.373Z,100587.70
2019-05-20T13:28:48.510Z,100586.73
2019-05-20T13:31:21.174Z,100589.73
2019-05-20T13:33:52.241Z,100588.36
2019-05-20T13:36:23.265Z,100581.27
2019-05-20T13:38:54.494Z,100579.98
2019-05-20T13:41:25.633Z,100565.81
2019-05-20T13:43:59.569Z,100571.04
2019-05-20T13:46:30.623Z,100569.20
2019-05-20T13:49:03.240Z,100569.87
2019-05-20T13:51:38.392Z,100569.02
2019-05-20T13:54:09.554Z,100561.12
2019-05-20T13:56:42.200Z,100554.23
2019-05-20T13:59:13.309Z,100550.75
2019-05-20T14:01:44.390Z,100543.05
2019-05-20T14:04:15.476Z,100540.00
2019-05-20T14:06:46.516Z,100536.98
2019-05-20T14:09:17.586Z,100524.69
2019-05-20T14:11:50.054Z,100521.66
2019-05-20T14:14:22.634Z,100516.80
2019-05-20T14:16:53.644Z,100520.15
2019-05-20T14:19:24.761Z,100523.83
2019-05-20T14:21:58.935Z,100519.11
2019-05-20T14:24:32.441Z,100532.88
2019-05-20T14:27:03.465Z,100524.38
2019-05-20T14:29:34.785Z,100530.39
2019-05-20T14:32:05.817Z,100520.80
2019-05-20T14:34:37.077Z,100518.11
2019-05-20T14:37:09.217Z,100510.70
2019-05-20T14:39:41.418Z,100499.45
2019-05-20T14:42:12.570Z,100504.16
2019-05-20T14:44:49.604Z,100512.78
2019-05-20T14:47:22.340Z,100519.48
2019-05-20T14:49:55.153Z,100522.05
2019-05-20T14:52:27.232Z,100529.61
2019-05-20T14:55:02.550Z,100529.95
2019-05-20T14:57:33.673Z,100526.13
2019-05-20T15:00:07.201Z,100531.16
2019-05-20T15:02:38.346Z,100532.69
2019-05-20T15:05:10.026Z,100536.36
2019-05-20T15:07:43.647Z,100535.70
2019-05-20T15:10:15.730Z,100524.94
2019-05-20T15:12:46.901Z,100517.55
2019-05-20T15:15:18.275Z,100510.50
2019-05-20T15:17:49.394Z,100512.86
2019-05-20T15:20:20.536Z,100519.93
2019-05-20T15:22:51.972Z,100522.61
2019-05-20T15:25:23.945Z,100527.97
2019-05-20T15:27:55.755Z,100532.67
2019-05-20T15:30:28.459Z,100533.02
2019-05-20T15:32:59.741Z,100539.55
2019-05-20T15:35:30.796Z,100533.52
2019-05-20T15:38:04.895Z,100547.47
2019-05-20T15:40:40.101Z,100541.08
2019-05-20T15:43:11.459Z,100540.20
2019-05-20T15:45:42.543Z,100530.29
2019-05-20T15:48:16.717Z,100529.59
2019-05-20T15:50:50.971Z,100526.41
2019-05-20T15:53:22.014Z,100527.92
2019-05-20T15:55:54.056Z,100532.63
2019-05-20T15:58:25.171Z,100543.72
2019-05-20T16:00:56.274Z,100543.72
2019-05-20T16:03:27.322Z,100547.42
2019-05-20T16:06:01.227Z,100540.03
2019-05-20T16:08:32.266Z,100539.83
2019-05-20T16:11:06.628Z,100542.84
2019-05-20T16:13:36.882Z,100520.31
2019-05-20T16:16:12.773Z,100511.41
2019-05-20T16:18:42.314Z,100517.94
2019-05-20T16:21:16.465Z,100533.73
2019-05-20T16:23:47.641Z,100537.77
2019-05-20T16:26:20.490Z,100547.02
2019-05-20T16:28:53.020Z,100549.70
2019-05-20T16:31:24.186Z,100549.20
2019-05-20T16:33:55.435Z,100561.47
2019-05-20T16:36:26.582Z,100581.97
2019-05-20T16:38:57.617Z,100561.15
2019-05-20T16:41:29.509Z,100553.09
2019-05-20T16:44:00.559Z,100570.05
2019-05-20T16:46:31.713Z,100573.23
2019-05-20T16:49:04.447Z,100545.70
2019-05-20T16:51:37.334Z,100527.05
2019-05-20T16:54:08.491Z,100504.40
2019-05-20T16:56:40.393Z,100507.09
2019-05-20T16:59:11.430Z,100498.36
2019-05-20T17:01:46.257Z,100500.38
2019-05-20T17:04:16.646Z,100519.14
2019-05-20T17:06:49.295Z,100528.54
2019-05-20T17:09:20.315Z,100518.47
2019-05-20T17:11:52.172Z,100582.37
2019-05-20T17:14:24.683Z,100593.70
2019-05-20T17:16:55.741Z,100589.23
2019-05-20T17:19:26.771Z,100608.97
2019-05-20T17:21:57.832Z,100617.59
2019-05-20T17:24:30.295Z,100632.61
2019-05-20T17:27:02.995Z,100622.43
2019-05-20T17:29:34.103Z,100634.35
2019-05-20T17:32:09.688Z,100636.37
2019-05-20T17:34:40.707Z,100639.55
2019-05-20T17:37:11.800Z,100631.28
2019-05-20T17:39:42.954Z,100620.53
2019-05-20T17:42:16.544Z,100611.45
2019-05-20T17:44:47.614Z,100606.75
2019-05-20T17:47:18.874Z,100601.39
2019-05-20T17:49:49.997Z,100599.05
2019-05-20T17:52:21.117Z,100581.45
2019-05-20T17:54:52.185Z,100578.86
2019-05-20T17:57:24.957Z,100575.63
2019-05-20T17:59:56.084Z,100575.50
2019-05-20T18:02:27.475Z,100580.20
2019-05-20T18:05:00.201Z,100575.38
2019-05-20T18:07:31.458Z,100598.23
2019-05-20T18:10:02.748Z,100600.52
2019-05-20T18:12:34.216Z,100608.88
2019-05-20T18:15:07.239Z,100601.62
2019-05-20T18:17:38.328Z,100608.03
2019-05-20T18:20:10.203Z,100611.75
2019-05-20T18:22:41.415Z,100618.00
2019-05-20T18:25:12.800Z,100615.89
2019-05-20T18:27:48.240Z,100624.45
2019-05-20T18:30:19.810Z,100629.35
2019-05-20T18:32:51.253Z,100638.72
2019-05-20T18:35:22.641Z,100634.38
2019-05-20T18:37:53.903Z,100624.85
2019-05-20T18:40:25.120Z,100627.37
2019-05-20T18:42:56.444Z,100631.91
2019-05-20T18:45:27.888Z,100630.69
2019-05-20T18:47:59.160Z,100625.30
2019-05-20T18:50:30.359Z,100625.09
2019-05-20T18:53:01.388Z,100627.08
2019-05-20T18:55:34.860Z,100631.82
2019-05-20T18:58:06.899Z,100630.44
2019-05-20T19:00:39.779Z,100622.85
2019-05-20T19:03:11.956Z,100609.61
2019-05-20T19:05:43.132Z,100611.14
2019-05-20T19:08:15.187Z,100608.83
2019-05-20T19:10:46.659Z,100607.33
2019-05-20T19:13:18.594Z,100612.04
2019-05-20T19:15:52.130Z,100610.70
2019-05-20T19:18:23.277Z,100608.39
2019-05-20T19:20:54.392Z,100611.70
2019-05-20T19:23:25.575Z,100624.84
2019-05-20T19:25:56.956Z,100627.75
2019-05-20T19:28:30.650Z,100632.20
2019-05-20T19:31:01.839Z,100623.68
2019-05-20T19:33:34.414Z,100610.08
2019-05-20T19:36:05.812Z,100598.73
2019-05-20T19:38:36.951Z,100594.89
2019-05-20T19:41:08.455Z,100594.94
2019-05-20T19:43:42.030Z,100607.38
2019-05-20T19:46:13.106Z,100618.88
2019-05-20T19:48:44.292Z,100602.63
2019-05-20T19:51:16.809Z,100601.17
2019-05-20T19:53:51.232Z,100597.11
2019-05-20T19:56:22.900Z,100596.66
2019-05-20T19:58:54.948Z,100593.19
2019-05-20T20:01:26.128Z,100592.61
2019-05-20T20:03:59.326Z,100586.23
2019-05-20T20:06:30.356Z,100589.17
2019-05-20T20:09:01.904Z,100579.13
2019-05-20T20:11:34.653Z,100575.56
2019-05-20T20:14:09.574Z,100578.83
2019-05-20T20:16:40.911Z,100572.46
2019-05-20T20:19:12.020Z,100574.82
2019-05-20T20:21:43.388Z,100559.11
2019-05-20T20:24:14.617Z,100553.98
2019-05-20T20:26:45.759Z,100563.38
2019-05-20T20:29:17.780Z,100567.74
2019-05-20T20:31:50.558Z,100563.38
2019-05-20T20:34:22.760Z,100569.56
2019-05-20T20:36:54.181Z,100575.87
2019-05-20T20:39:25.432Z,100585.16
2019-05-20T20:41:57.996Z,100594.56
2019-05-20T20:44:29.978Z,100595.48
2019-05-20T20:47:01.351Z,100596.28
2019-05-20T20:49:32.477Z,100593.19
2019-05-20T20:52:05.303Z,100585.51
2019-05-20T20:54:36.535Z,100587.48
2019-05-20T20:57:07.708Z,100589.39
2019-05-20T20:59:39.871Z,100588.05
2019-05-20T21:02:14.092Z,100576.59
2019-05-20T21:04:48.631Z,100580.05
2019-05-20T21:07:21.388Z,100591.06
2019-05-20T21:09:55.004Z,100607.61
2019-05-20T21:12:29.229Z,100596.50
2019-05-20T21:15:01.703Z,100584.88
2019-05-20T21:17:33.041Z,100571.09
2019-05-20T21:20:06.883Z,100578.83
2019-05-20T21:22:38.708Z,100563.92
2019-05-20T21:25:09.875Z,100560.55
2019-05-20T21:27:41.168Z,100554.08
2019-05-20T21:30:17.080Z,100551.26
2019-05-20T21:32:48.573Z,100554.30
2019-05-20T21:35:21.190Z,100564.62
2019-05-20T21:37:52.585Z,100556.33
2019-05-20T21:40:23.759Z,100548.67
2019-05-20T21:42:56.709Z,100554.34
2019-05-20T21:45:29.269Z,100549.16
2019-05-20T21:48:00.516Z,100546.00
2019-05-20T21:50:31.747Z,100557.30
2019-05-20T21:53:04.636Z,100550.78
2019-05-20T21:55:41.945Z,100548.91
2019-05-20T21:58:14.694Z,100555.49
2019-05-20T22:00:53.348Z,100551.16
2019-05-20T22:03:25.362Z,100549.77
2019-05-20T22:05:56.970Z,100552.98
2019-05-20T22:08:29.772Z,100560.06
2019-05-20T22:11:00.928Z,100561.07
2019-05-20T22:13:35.261Z,100555.43
2019-05-20T22:16:07.500Z,100545.12
2019-05-20T22:18:38.565Z,100542.02
2019-05-20T22:21:11.160Z,100544.91
2019-05-20T22:23:48.262Z,100548.27
2019-05-20T22:26:19.306Z,100549.61
2019-05-20T22:28:50.341Z,100555.73
2019-05-20T22:31:22.250Z,100548.22
2019-05-20T22:33:53.288Z,100551.09
2019-05-20T22:36:24.388Z,100547.09
2019-05-20T22:38:58.603Z,100554.24
2019-05-20T22:41:31.232Z,100561.70
2019-05-20T22:44:02.330Z,100565.61
2019-05-20T22:46:33.475Z,100573.06
2019-05-20T22:49:04.537Z,100574.23
2019-05-20T22:51:35.691Z,100587.05
2019-05-20T22:54:06.786Z,100589.46
2019-05-20T22:56:37.813Z,100587.05
2019-05-20T22:59:09.004Z,100596.57
2019-05-20T23:01:40.116Z,100597.45
2019-05-20T23:04:11.187Z,100613.80
2019-05-20T23:06:42.192Z,100608.64
2019-05-20T23:09:15.004Z,100606.97
2019-05-20T23:11:47.658Z,100604.70
2019-05-20T23:14:18.703Z,100606.13
2019-05-20T23:16:49.768Z,100596.77
2019-05-20T23:19:23.232Z,100596.39
2019-05-20T23:21:56.963Z,100585.55
2019-05-20T23:24:28.067Z,100588.78
2019-05-20T23:27:00.601Z,100592.08
2019-05-20T23:29:31.668Z,100594.66
2019-05-20T23:32:04.331Z,100582.84
2019-05-20T23:34:36.875Z,100570.84
2019-05-20T23:37:08.029Z,100578.75
2019-05-20T23:39:39.181Z,100587.52
2019-05-20T23:42:10.221Z,100577.56
2019-05-20T23:44:41.275Z,100562.20
2019-05-20T23:47:12.366Z,100570.53
2019-05-20T23:49:45.732Z,100561.91
2019-05-20T23:52:18.711Z,100562.72
2019-05-20T23:54:49.777Z,100568.02
2019-05-20T23:57:20.803Z,100568.61
2019-05-20T23:59:51.865Z,100562.87
